Time;durP1;ratioP1;P1;durP2;ratioP2;P2;SDS_P1;SDS_P2;PMS_P1;PMS_P2;Temp;Humidity;BMP_temperature;BMP_pressure;BME280_temperature;BME280_humidity;BME280_pressure;Samples;Min_cycle;Max_cycle;Signal;HPM_P1;HPM_P2
2021/08/06 00:00:50;;;;;;;4.63;2.78;;;18.80;68.80;;;;;;5051653;28;20032;-74
2021/08/06 00:03:17;;;;;;;3.33;2.33;;;18.80;68.80;;;;;;5051723;28;20289;-74
2021/08/06 00:05:43;;;;;;;5.03;2.85;;;18.80;68.80;;;;;;5068904;28;20123;-75
2021/08/06 00:08:09;;;;;;;4.60;3.00;;;18.80;68.90;;;;;;5050272;28;20032;-74
2021/08/06 00:10:35;;;;;;;6.13;2.67;;;18.80;68.90;;;;;;5069700;28;20028;-74
2021/08/06 00:13:01;;;;;;;4.90;2.80;;;18.80;68.90;;;;;;5069373;28;20056;-75
2021/08/06 00:15:27;;;;;;;4.55;3.00;;;18.80;68.90;;;;;;5050994;28;20068;-74
2021/08/06 00:17:53;;;;;;;5.80;2.83;;;18.80;69.00;;;;;;5068998;28;20036;-76
2021/08/06 00:20:19;;;;;;;11.55;3.55;;;18.70;68.80;;;;;;5067021;28;20484;-74
2021/08/06 00:22:45;;;;;;;5.70;2.83;;;18.70;68.80;;;;;;5068739;28;20033;-78
2021/08/06 00:25:11;;;;;;;3.60;2.65;;;18.70;68.90;;;;;;5068701;28;20203;-75
2021/08/06 00:27:37;;;;;;;4.40;2.88;;;18.70;68.90;;;;;;5068758;28;20027;-76
2021/08/06 00:30:05;;;;;;;3.45;2.63;;;18.70;68.90;;;;;;5050297;28;20028;-75
2021/08/06 00:32:31;;;;;;;4.00;2.47;;;18.70;68.90;;;;;;5068390;28;20040;-77
2021/08/06 00:35:03;;;;;;;4.85;2.95;;;18.70;69.00;;;;;;5043334;28;20044;-75
2021/08/06 00:37:30;;;;;;;5.10;2.60;;;18.60;68.80;;;;;;5050288;28;20089;-78
2021/08/06 00:40:00;;;;;;;4.53;3.15;;;18.60;68.90;;;;;;5044276;28;20047;-75
2021/08/06 00:42:30;;;;;;;3.63;2.50;;;18.60;68.90;;;;;;5051502;28;20043;-75
2021/08/06 00:44:57;;;;;;;4.25;2.70;;;18.60;68.90;;;;;;5066457;28;20096;-75
2021/08/06 00:47:28;;;;;;;3.50;2.58;;;18.60;68.90;;;;;;5066682;28;20606;-74
2021/08/06 00:49:56;;;;;;;3.25;2.50;;;18.60;68.90;;;;;;5050235;28;20024;-76
2021/08/06 00:52:23;;;;;;;3.40;2.42;;;18.60;68.90;;;;;;5050212;28;20102;-75
2021/08/06 00:54:50;;;;;;;5.68;2.90;;;18.50;68.80;;;;;;5050248;28;20855;-77
2021/08/06 00:57:17;;;;;;;3.42;2.95;;;18.60;69.00;;;;;;5050534;28;20049;-76
2021/08/06 00:59:52;;;;;;;4.28;2.72;;;18.60;69.10;;;;;;5049633;28;20052;-76
2021/08/06 01:02:31;;;;;;;5.38;2.45;;;18.50;68.90;;;;;;5067019;28;20391;-75
2021/08/06 01:05:11;;;;;;;4.45;3.22;;;18.50;68.90;;;;;;5049393;28;20399;-75
2021/08/06 01:07:55;;;;;;;3.50;2.35;;;18.50;69.00;;;;;;5049812;28;20572;-76
2021/08/06 01:10:42;;;;;;;5.75;3.10;;;18.50;69.00;;;;;;5046732;28;20041;-74
2021/08/06 01:13:11;;;;;;;4.57;2.70;;;18.50;69.00;;;;;;5051064;28;20032;-75
2021/08/06 01:15:41;;;;;;;3.60;2.45;;;18.50;68.90;;;;;;5067238;28;20081;-76
2021/08/06 01:18:12;;;;;;;5.68;2.47;;;18.50;69.00;;;;;;5049046;28;20040;-75
2021/08/06 01:20:46;;;;;;;6.57;3.00;;;18.50;69.00;;;;;;5032931;28;20449;-76
2021/08/06 01:23:30;;;;;;;4.72;2.90;;;18.40;68.90;;;;;;5033434;28;20162;-76
2021/08/06 01:26:06;;;;;;;2.97;2.58;;;18.40;68.90;;;;;;5049462;28;20044;-75
2021/08/06 01:29:08;;;;;;;6.00;2.67;;;18.40;68.90;;;;;;5059602;28;20131;-75
2021/08/06 01:31:43;;;;;;;6.38;2.97;;;18.40;68.90;;;;;;5058006;28;20056;-76
2021/08/06 01:34:16;;;;;;;4.88;2.67;;;18.40;68.90;;;;;;5037856;28;20037;-75
2021/08/06 01:36:43;;;;;;;3.70;2.55;;;18.40;68.90;;;;;;5047236;28;20032;-75
2021/08/06 01:39:12;;;;;;;4.20;2.38;;;18.40;69.00;;;;;;5041680;28;20039;-77
2021/08/06 01:42:01;;;;;;;6.18;2.85;;;18.40;69.00;;;;;;5050728;28;20119;-74
2021/08/06 01:44:47;;;;;;;4.55;3.05;;;18.40;69.10;;;;;;5067647;28;20467;-75
2021/08/06 01:47:19;;;;;;;4.90;3.28;;;18.30;69.00;;;;;;5056501;28;20048;-76
2021/08/06 01:49:58;;;;;;;2.83;2.40;;;18.30;68.90;;;;;;5068251;28;20078;-75
2021/08/06 01:52:31;;;;;;;5.32;2.60;;;18.30;68.90;;;;;;5070579;28;20079;-75
2021/08/06 01:55:02;;;;;;;5.28;2.30;;;18.30;69.00;;;;;;5070332;28;20028;-75
2021/08/06 01:57:41;;;;;;;4.40;2.70;;;18.30;69.00;;;;;;5038550;28;20024;-77
2021/08/06 02:00:09;;;;;;;4.97;2.70;;;18.30;69.00;;;;;;5053571;28;20028;-77
2021/08/06 02:02:44;;;;;;;3.20;2.40;;;18.30;69.10;;;;;;5054719;28;20032;-75
2021/08/06 02:05:15;;;;;;;5.75;2.33;;;18.30;69.10;;;;;;5053337;28;20078;-75
2021/08/06 02:07:42;;;;;;;4.47;2.28;;;18.20;69.00;;;;;;5069637;28;20498;-77
2021/08/06 02:10:10;;;;;;;8.82;2.35;;;18.20;69.00;;;;;;5053383;28;20503;-74
2021/08/06 02:12:37;;;;;;;5.47;2.40;;;18.20;69.00;;;;;;5070331;28;20040;-76
2021/08/06 02:15:12;;;;;;;4.78;2.30;;;18.20;69.00;;;;;;5070102;28;20067;-77
2021/08/06 02:17:43;;;;;;;4.35;2.50;;;18.20;69.10;;;;;;5069916;28;20519;-76
2021/08/06 02:20:33;;;;;;;4.30;2.30;;;18.20;69.10;;;;;;5069495;28;20454;-75
2021/08/06 02:23:05;;;;;;;3.58;2.08;;;18.20;69.10;;;;;;5069881;28;20063;-75
2021/08/06 02:25:33;;;;;;;3.50;2.30;;;18.20;69.20;;;;;;5069690;28;20454;-74
2021/08/06 02:28:02;;;;;;;3.72;2.47;;;18.20;69.20;;;;;;5053723;28;20051;-75
2021/08/06 02:30:35;;;;;;;3.65;1.95;;;18.20;69.20;;;;;;5038140;28;20533;-75
2021/08/06 02:33:03;;;;;;;7.43;2.35;;;18.10;69.10;;;;;;5075886;28;20072;-75
2021/08/06 02:35:29;;;;;;;3.65;2.20;;;18.10;69.10;;;;;;5077913;28;20044;-74
2021/08/06 02:37:55;;;;;;;2.80;2.25;;;18.20;69.30;;;;;;5077029;28;20036;-76
2021/08/06 02:40:22;;;;;;;4.25;2.08;;;18.10;69.20;;;;;;5077375;28;20074;-74
2021/08/06 02:42:48;;;;;;;3.42;2.17;;;18.10;69.20;;;;;;5076987;28;20024;-79
2021/08/06 02:45:16;;;;;;;3.33;1.80;;;18.10;69.20;;;;;;5059129;28;20024;-76
2021/08/06 02:47:43;;;;;;;2.60;1.77;;;18.10;69.20;;;;;;5077875;28;20101;-77
2021/08/06 02:50:10;;;;;;;2.90;2.08;;;18.10;69.30;;;;;;5077305;28;20035;-74
2021/08/06 02:52:37;;;;;;;2.08;1.70;;;18.10;69.40;;;;;;5076719;28;20086;-76
2021/08/06 02:55:03;;;;;;;2.83;2.03;;;18.10;69.40;;;;;;5077585;28;20501;-74
2021/08/06 02:57:30;;;;;;;3.90;1.98;;;18.10;69.40;;;;;;5076706;28;20032;-74
2021/08/06 02:59:56;;;;;;;4.95;2.17;;;18.10;69.40;;;;;;5059378;28;20043;-75
2021/08/06 03:02:24;;;;;;;4.38;2.47;;;18.00;69.20;;;;;;5059946;28;20025;-75
2021/08/06 03:04:51;;;;;;;4.72;2.15;;;18.00;69.30;;;;;;5060067;28;20024;-75
2021/08/06 03:07:20;;;;;;;3.35;1.85;;;18.00;69.30;;;;;;5077183;28;20047;-75
2021/08/06 03:09:48;;;;;;;3.40;2.20;;;18.00;69.30;;;;;;5059746;28;20480;-75
2021/08/06 03:12:16;;;;;;;2.50;1.52;;;18.00;69.30;;;;;;5059580;28;20047;-74
2021/08/06 03:14:42;;;;;;;4.28;1.95;;;18.00;69.30;;;;;;5059276;28;20514;-74
2021/08/06 03:17:09;;;;;;;3.80;2.03;;;18.00;69.30;;;;;;5059341;28;20028;-74
2021/08/06 03:19:40;;;;;;;3.38;1.95;;;18.00;69.40;;;;;;5059168;28;20849;-74
2021/08/06 03:22:07;;;;;;;3.22;1.92;;;18.00;69.40;;;;;;5059322;28;20045;-75
2021/08/06 03:24:33;;;;;;;2.90;1.75;;;18.00;69.40;;;;;;5059944;28;20028;-74
2021/08/06 03:27:00;;;;;;;2.50;1.95;;;18.00;69.40;;;;;;5075686;28;20039;-77
2021/08/06 03:29:26;;;;;;;5.93;2.40;;;18.00;69.40;;;;;;5059639;28;20131;-74
2021/08/06 03:31:53;;;;;;;2.42;1.88;;;18.00;69.40;;;;;;5051396;28;20518;-75
2021/08/06 03:34:20;;;;;;;5.40;2.00;;;18.00;69.50;;;;;;5039283;28;20033;-75
2021/08/06 03:36:46;;;;;;;3.70;2.17;;;18.00;69.50;;;;;;5039733;28;20112;-75
2021/08/06 03:39:12;;;;;;;4.22;1.73;;;18.00;69.50;;;;;;5039412;28;20127;-75
2021/08/06 03:41:40;;;;;;;2.25;1.63;;;18.00;69.50;;;;;;5038860;28;20122;-75
2021/08/06 03:44:06;;;;;;;3.65;2.10;;;17.90;69.40;;;;;;5034970;28;20032;-76
2021/08/06 03:46:33;;;;;;;5.13;2.03;;;17.90;69.50;;;;;;5035264;28;20120;-76
2021/08/06 03:48:59;;;;;;;5.45;2.25;;;17.90;69.50;;;;;;5044224;28;20111;-76
2021/08/06 03:51:27;;;;;;;2.33;1.65;;;17.90;69.50;;;;;;5033147;28;20086;-78
2021/08/06 03:53:53;;;;;;;3.50;1.95;;;17.90;69.50;;;;;;5032210;28;20034;-78
2021/08/06 03:56:19;;;;;;;3.35;1.58;;;17.90;69.60;;;;;;5015998;28;20036;-74
2021/08/06 03:58:48;;;;;;;4.70;2.28;;;17.90;69.70;;;;;;5032562;28;20512;-74
2021/08/06 04:01:14;;;;;;;3.83;2.17;;;17.90;69.70;;;;;;5016029;28;20041;-75
2021/08/06 04:03:41;;;;;;;6.00;2.58;;;17.90;69.70;;;;;;5016150;28;20473;-73
2021/08/06 04:06:10;;;;;;;7.72;2.40;;;17.90;69.70;;;;;;5031879;28;20037;-74
2021/08/06 04:08:36;;;;;;;4.68;2.08;;;17.90;69.70;;;;;;5033396;28;20034;-74
2021/08/06 04:11:02;;;;;;;7.20;2.72;;;17.90;69.80;;;;;;5015675;28;20087;-74
2021/08/06 04:13:28;;;;;;;8.43;2.50;;;17.90;69.80;;;;;;5015987;28;20025;-74
2021/08/06 04:15:54;;;;;;;5.85;2.63;;;17.90;69.90;;;;;;5016904;28;20038;-74
2021/08/06 04:18:22;;;;;;;6.40;2.50;;;17.90;69.90;;;;;;5052188;28;20029;-75
2021/08/06 04:20:48;;;;;;;8.55;3.13;;;17.90;69.90;;;;;;5035019;28;20039;-74
2021/08/06 04:23:14;;;;;;;9.63;3.55;;;17.90;70.00;;;;;;5035012;28;20109;-75
2021/08/06 04:25:41;;;;;;;4.10;2.28;;;17.90;70.00;;;;;;5051774;28;20041;-74
2021/08/06 04:28:07;;;;;;;6.75;2.97;;;17.90;70.00;;;;;;5035580;28;20029;-76
2021/08/06 04:30:34;;;;;;;9.02;2.75;;;17.90;70.00;;;;;;5051334;28;20033;-73
2021/08/06 04:33:00;;;;;;;7.43;2.90;;;17.90;70.10;;;;;;5035260;28;20053;-74
2021/08/06 04:35:26;;;;;;;9.68;2.80;;;17.90;70.10;;;;;;5052801;28;20487;-77
2021/08/06 04:37:54;;;;;;;9.52;3.45;;;17.90;70.10;;;;;;5035311;28;20025;-74
2021/08/06 04:40:26;;;;;;;;;;;17.90;70.20;;;;;;5035506;28;20033;-75
2021/08/06 04:42:53;;;;;;;8.20;2.95;;;17.90;70.10;;;;;;5052012;28;19909;-74
2021/08/06 04:45:20;;;;;;;8.07;3.13;;;17.90;70.00;;;;;;5051433;28;20029;-74
2021/08/06 04:47:49;;;;;;;7.60;2.50;;;17.90;70.10;;;;;;5046431;28;20503;-75
2021/08/06 04:50:17;;;;;;;8.82;3.35;;;17.90;70.10;;;;;;5025369;28;20453;-73
2021/08/06 04:52:44;;;;;;;8.73;3.08;;;17.90;70.10;;;;;;5011370;28;20528;-74
2021/08/06 04:55:12;;;;;;;9.73;2.72;;;17.90;70.20;;;;;;5028154;28;20033;-74
2021/08/06 04:57:41;;;;;;;7.28;2.85;;;17.90;70.20;;;;;;5031680;28;20070;-75
2021/08/06 05:00:09;;;;;;;8.82;3.88;;;17.90;70.30;;;;;;5031859;28;20029;-74
2021/08/06 05:02:35;;;;;;;6.97;3.00;;;17.90;70.30;;;;;;5027236;28;20385;-76
2021/08/06 05:05:03;;;;;;;9.05;3.15;;;17.90;70.30;;;;;;5026429;28;20148;-75
2021/08/06 05:07:29;;;;;;;9.88;3.28;;;17.90;70.90;;;;;;5034640;28;20184;-75
2021/08/06 05:09:55;;;;;;;6.38;2.75;;;17.90;70.30;;;;;;5044454;28;20069;-77
2021/08/06 05:12:21;;;;;;;12.00;3.10;;;17.90;70.30;;;;;;5035219;28;20369;-75
2021/08/06 05:14:49;;;;;;;9.73;3.55;;;17.90;70.40;;;;;;5013824;28;20060;-76
2021/08/06 05:17:15;;;;;;;6.78;3.35;;;17.90;70.40;;;;;;5029614;28;20033;-75
2021/08/06 05:19:42;;;;;;;7.38;3.13;;;17.90;70.40;;;;;;5026256;28;20107;-83
2021/08/06 05:22:10;;;;;;;6.93;3.28;;;17.90;70.40;;;;;;5026266;28;20026;-75
2021/08/06 05:24:36;;;;;;;10.02;4.07;;;17.90;70.40;;;;;;5029787;28;20044;-75
2021/08/06 05:27:03;;;;;;;6.53;3.22;;;17.90;70.40;;;;;;5029693;28;20048;-75
2021/08/06 05:29:30;;;;;;;12.48;3.17;;;18.00;70.60;;;;;;5029798;28;20107;-78
2021/08/06 05:31:56;;;;;;;6.03;2.50;;;17.90;70.40;;;;;;5037635;28;20597;-75
2021/08/06 05:34:23;;;;;;;10.45;3.17;;;17.90;70.90;;;;;;5066126;28;20535;-77
2021/08/06 05:36:51;;;;;;;10.45;3.15;;;17.90;70.50;;;;;;5061258;28;20214;-76
2021/08/06 05:39:17;;;;;;;11.15;3.63;;;18.00;70.60;;;;;;5058183;28;20211;-77
2021/08/06 05:41:44;;;;;;;7.00;3.22;;;17.90;70.40;;;;;;5014676;28;20017;-77
2021/08/06 05:44:10;;;;;;;9.82;3.58;;;17.90;70.40;;;;;;5056173;28;20670;-76
2021/08/06 05:46:36;;;;;;;6.97;3.00;;;17.90;70.50;;;;;;5059617;28;20068;-77
2021/08/06 05:49:02;;;;;;;8.75;2.97;;;18.00;70.70;;;;;;5047804;28;20028;-75
2021/08/06 05:51:28;;;;;;;10.48;3.72;;;18.00;70.70;;;;;;5039880;28;20467;-77
2021/08/06 05:53:54;;;;;;;9.40;3.53;;;18.00;70.70;;;;;;5051351;28;20025;-75
2021/08/06 05:56:20;;;;;;;7.80;2.90;;;18.00;70.70;;;;;;5055838;28;20186;-76
2021/08/06 05:58:51;;;;;;;8.75;3.75;;;18.00;70.90;;;;;;5048647;28;20021;-75
2021/08/06 06:01:17;;;;;;;10.52;3.55;;;18.10;71.20;;;;;;5049199;28;20055;-76
2021/08/06 06:04:00;;;;;;;8.40;3.53;;;18.10;71.30;;;;;;5065536;28;20595;-77
2021/08/06 06:07:05;;;;;;;8.45;3.30;;;18.10;71.30;;;;;;5049436;28;20368;-80
2021/08/06 06:09:32;;;;;;;8.88;3.08;;;18.20;71.50;;;;;;5033113;28;20086;-78
2021/08/06 06:11:58;;;;;;;11.90;3.05;;;18.20;71.60;;;;;;5048969;28;20533;-80
2021/08/06 06:14:24;;;;;;;18.30;4.20;;;18.30;71.90;;;;;;5049059;28;20388;-78
2021/08/06 06:16:52;;;;;;;8.35;3.50;;;18.30;72.00;;;;;;5044879;28;20036;-81
2021/08/06 06:19:19;;;;;;;9.48;3.60;;;18.30;72.10;;;;;;5061419;28;20090;-83
2021/08/06 06:21:46;;;;;;;12.52;3.40;;;18.30;72.10;;;;;;5057744;28;20040;-86
2021/08/06 06:24:14;;;;;;;11.68;3.17;;;18.30;72.20;;;;;;5038451;28;20029;-83
2021/08/06 06:26:40;;;;;;;5.80;2.58;;;18.40;72.40;;;;;;5044706;28;20484;-83
2021/08/06 06:29:07;;;;;;;12.20;3.45;;;18.40;72.40;;;;;;5060687;28;20383;-83
2021/08/06 06:31:36;;;;;;;9.98;2.80;;;18.40;72.40;;;;;;5049186;28;20087;-83
2021/08/06 06:34:03;;;;;;;8.00;3.20;;;18.50;72.60;;;;;;5050235;28;20040;-84
2021/08/06 06:36:32;;;;;;;14.73;3.78;;;18.50;72.40;;;;;;5050794;28;20578;-86
2021/08/06 06:39:00;;;;;;;10.60;3.70;;;18.60;72.60;;;;;;5042189;28;20032;-87
2021/08/06 06:41:26;;;;;;;7.60;2.95;;;18.50;72.40;;;;;;5044540;28;20173;-93
2021/08/06 06:43:56;;;;;;;6.45;2.47;;;18.60;72.60;;;;;;5062046;28;20041;-83
2021/08/06 06:46:25;;;;;;;6.55;2.20;;;18.60;72.60;;;;;;5048660;28;20295;-82
2021/08/06 06:48:51;;;;;;;9.07;3.05;;;18.60;72.60;;;;;;5065643;28;20036;-83
2021/08/06 06:51:17;;;;;;;5.88;2.30;;;18.70;72.70;;;;;;5049192;28;20499;-83
2021/08/06 06:53:46;;;;;;;8.55;3.05;;;18.60;72.50;;;;;;5048764;28;20111;-84
2021/08/06 06:56:13;;;;;;;8.80;2.85;;;18.70;72.70;;;;;;5066831;28;20032;-84
2021/08/06 06:58:40;;;;;;;8.27;2.97;;;18.80;72.80;;;;;;5049337;28;20501;-85
2021/08/06 07:01:07;;;;;;;6.13;2.42;;;18.90;72.80;;;;;;5053266;28;20025;-83
2021/08/06 07:03:34;;;;;;;6.88;2.58;;;18.90;72.70;;;;;;5048321;28;20052;-81
2021/08/06 07:06:00;;;;;;;8.25;2.63;;;19.00;72.80;;;;;;5066551;28;20399;-84
2021/08/06 07:08:27;;;;;;;11.07;3.78;;;19.00;72.70;;;;;;5048745;28;20029;-83
2021/08/06 07:10:54;;;;;;;9.20;3.05;;;19.00;72.50;;;;;;5066381;28;20029;-84
2021/08/06 07:13:20;;;;;;;9.68;2.92;;;19.10;72.70;;;;;;5064794;28;20060;-83
2021/08/06 07:15:48;;;;;;;6.75;2.83;;;19.10;72.80;;;;;;5048476;28;20035;-82
2021/08/06 07:18:14;;;;;;;14.38;4.13;;;19.10;72.80;;;;;;5035096;28;20025;-85
2021/08/06 07:20:40;;;;;;;9.23;3.35;;;19.20;73.00;;;;;;5049619;28;20029;-91
2021/08/06 07:23:06;;;;;;;11.75;3.70;;;19.30;73.10;;;;;;5052736;28;20376;-83
2021/08/06 07:25:33;;;;;;;12.57;3.90;;;19.50;73.30;;;;;;5051574;28;20503;-82
2021/08/06 07:28:03;;;;;;;7.57;3.28;;;19.60;73.10;;;;;;5069342;28;20483;-82
2021/08/06 07:30:30;;;;;;;6.25;2.90;;;19.80;73.20;;;;;;5035371;28;20042;-84
2021/08/06 07:32:56;;;;;;;7.30;2.92;;;19.80;73.00;;;;;;5049353;28;20418;-78
2021/08/06 07:35:25;;;;;;;9.65;3.63;;;19.90;73.00;;;;;;5050048;28;20063;-78
2021/08/06 07:37:52;;;;;;;13.93;4.18;;;20.00;73.10;;;;;;5056461;28;20079;-77
2021/08/06 07:40:18;;;;;;;15.52;3.92;;;20.00;73.00;;;;;;5063834;28;20038;-79
2021/08/06 07:42:44;;;;;;;14.02;3.90;;;20.10;73.20;;;;;;5061596;28;20029;-77
2021/08/06 07:45:12;;;;;;;16.88;4.80;;;20.10;73.00;;;;;;5053151;28;20036;-77
2021/08/06 07:47:38;;;;;;;11.00;3.90;;;20.20;73.00;;;;;;5053933;28;20036;-77
2021/08/06 07:50:06;;;;;;;8.50;4.00;;;20.20;72.70;;;;;;5037624;28;20025;-79
2021/08/06 07:52:32;;;;;;;10.05;3.60;;;20.30;72.80;;;;;;5035016;28;20479;-81
2021/08/06 07:54:58;;;;;;;11.13;4.47;;;20.30;72.80;;;;;;5069045;28;20047;-80
2021/08/06 07:57:25;;;;;;;15.23;4.05;;;20.30;72.80;;;;;;5047180;28;20048;-81
2021/08/06 07:59:52;;;;;;;10.00;3.67;;;20.40;72.80;;;;;;5029585;28;20029;-83
2021/08/06 08:02:21;;;;;;;15.27;4.55;;;20.40;72.60;;;;;;5052138;28;20021;-82
2021/08/06 08:04:48;;;;;;;11.30;3.85;;;20.50;72.80;;;;;;5061446;28;20127;-84
2021/08/06 08:07:15;;;;;;;12.88;4.07;;;20.50;72.70;;;;;;5047923;28;20044;-87
2021/08/06 08:09:41;;;;;;;11.40;3.53;;;20.60;72.70;;;;;;5061880;28;20032;-80
2021/08/06 08:12:08;;;;;;;9.05;3.58;;;20.60;72.50;;;;;;5062646;28;20189;-80
2021/08/06 08:14:34;;;;;;;10.50;3.97;;;20.60;72.40;;;;;;5050905;28;20614;-82
2021/08/06 08:17:01;;;;;;;7.60;3.70;;;20.60;72.30;;;;;;5046488;28;20112;-86
2021/08/06 08:19:28;;;;;;;10.32;3.55;;;20.50;72.10;;;;;;5051646;28;20179;-86
2021/08/06 08:21:55;;;;;;;10.88;3.60;;;20.50;72.20;;;;;;5072681;28;20087;-86
2021/08/06 08:24:22;;;;;;;13.68;4.15;;;20.40;72.00;;;;;;5044928;28;20114;-85
2021/08/06 08:26:50;;;;;;;7.75;3.80;;;20.40;72.00;;;;;;5038483;28;20052;-83
2021/08/06 08:29:16;;;;;;;10.25;3.75;;;20.40;72.00;;;;;;5056039;28;20102;-83
2021/08/06 08:31:42;;;;;;;11.95;3.65;;;20.30;71.90;;;;;;5031221;28;20126;-83
2021/08/06 08:34:10;;;;;;;12.48;3.97;;;20.30;71.90;;;;;;5042464;28;20067;-83
2021/08/06 08:36:36;;;;;;;15.48;4.07;;;20.30;71.90;;;;;;5046591;28;20025;-81
2021/08/06 08:39:04;;;;;;;8.82;4.28;;;20.30;71.90;;;;;;5059941;28;20032;-82
2021/08/06 08:41:33;;;;;;;14.15;4.82;;;20.30;71.80;;;;;;5058521;28;20051;-82
2021/08/06 08:44:00;;;;;;;10.45;4.28;;;20.30;71.80;;;;;;5054668;28;20025;-82
2021/08/06 08:46:30;;;;;;;11.63;4.45;;;20.30;71.90;;;;;;5048912;28;20041;-82
2021/08/06 08:48:59;;;;;;;10.52;4.32;;;20.30;71.90;;;;;;5065301;28;20021;-81
2021/08/06 08:51:28;;;;;;;20.10;5.18;;;20.50;72.10;;;;;;5049908;28;20032;-82
2021/08/06 08:53:56;;;;;;;13.52;3.60;;;20.60;71.90;;;;;;5049487;28;20430;-83
2021/08/06 08:56:23;;;;;;;8.98;4.38;;;20.80;71.90;;;;;;5066744;28;20032;-84
2021/08/06 08:58:51;;;;;;;10.65;3.63;;;20.90;71.70;;;;;;5066427;28;20028;-83
2021/08/06 09:01:17;;;;;;;12.50;4.32;;;21.00;71.40;;;;;;5049557;28;20048;-84
2021/08/06 09:03:49;;;;;;;13.77;5.70;;;21.00;71.20;;;;;;5049353;28;20071;-81
2021/08/06 09:06:42;;;;;;;14.82;4.80;;;21.10;71.40;;;;;;5051733;28;20490;-83
2021/08/06 09:09:31;;;;;;;13.10;4.25;;;21.20;71.30;;;;;;5057152;28;20036;-82
2021/08/06 09:12:50;;;;;;;17.75;4.05;;;21.30;71.10;;;;;;4986070;28;20034;-83
2021/08/06 09:15:53;;;;;;;16.65;5.40;;;21.30;71.00;;;;;;4969867;28;20564;-83
2021/08/06 09:18:27;;;;;;;14.18;4.30;;;21.30;70.90;;;;;;5011692;28;20040;-85
2021/08/06 09:21:19;;;;;;;10.32;4.32;;;21.40;70.80;;;;;;5049157;28;20036;-83
2021/08/06 09:23:53;;;;;;;9.40;4.15;;;21.50;70.90;;;;;;5049422;28;20032;-86
2021/08/06 09:26:41;;;;;;;16.17;4.70;;;21.50;70.90;;;;;;5050229;28;20432;-88
2021/08/06 09:29:13;;;;;;;11.90;4.85;;;21.50;70.70;;;;;;5051180;28;20038;-86
2021/08/06 09:31:51;;;;;;;18.95;5.53;;;21.50;70.70;;;;;;5052262;28;20040;-92
2021/08/06 09:34:24;;;;;;;11.93;4.20;;;21.50;70.60;;;;;;5035954;28;20036;-90
2021/08/06 09:36:53;;;;;;;12.45;4.57;;;21.60;70.70;;;;;;5052980;28;20027;-92
2021/08/06 09:39:21;;;;;;;13.25;4.72;;;21.60;70.60;;;;;;5037774;28;20040;-92
2021/08/06 09:41:47;;;;;;;11.57;4.85;;;21.70;70.70;;;;;;5034650;28;20115;-90
2021/08/06 09:44:17;;;;;;;12.27;4.65;;;21.70;70.60;;;;;;5036573;28;20617;-88
2021/08/06 09:46:44;;;;;;;13.35;5.30;;;21.90;70.70;;;;;;5015628;28;20051;-89
2021/08/06 09:49:10;;;;;;;11.05;4.85;;;22.10;70.80;;;;;;5030733;28;20035;-90
2021/08/06 09:51:42;;;;;;;12.38;5.15;;;22.20;70.60;;;;;;5052891;28;20039;-90
2021/08/06 09:54:25;;;;;;;13.27;4.07;;;22.30;70.40;;;;;;5019053;28;20048;-88
2021/08/06 09:57:08;;;;;;;;;;;22.50;70.30;;;;;;5050434;28;20199;-90
2021/08/06 09:59:37;;;;;;;14.98;5.22;;;22.70;70.50;;;;;;5067977;28;20003;-88
2021/08/06 10:02:32;;;;;;;13.88;4.65;;;22.80;70.30;;;;;;5069727;28;20036;-88
2021/08/06 10:05:15;;;;;;;13.18;4.65;;;22.90;70.10;;;;;;5014702;28;20033;-88
2021/08/06 10:07:44;;;;;;;13.63;4.00;;;23.10;69.80;;;;;;5019583;28;20108;-90
2021/08/06 10:10:22;;;;;;;13.55;4.47;;;23.20;69.90;;;;;;5071736;28;20124;-88
2021/08/06 10:12:49;;;;;;;9.63;4.40;;;23.30;69.70;;;;;;5035385;28;20028;-89
2021/08/06 10:15:17;;;;;;;13.25;4.60;;;23.50;69.60;;;;;;5054766;28;20029;-89
2021/08/06 10:17:44;;;;;;;9.00;3.97;;;23.60;69.50;;;;;;5024729;28;20040;-91
2021/08/06 10:20:13;;;;;;;10.25;4.10;;;23.60;69.10;;;;;;5080324;28;20036;-90
2021/08/06 10:22:40;;;;;;;14.93;4.00;;;23.70;69.00;;;;;;5048990;28;20523;-92
2021/08/06 10:25:09;;;;;;;8.18;3.60;;;23.80;68.90;;;;;;5031869;28;20053;-89
2021/08/06 10:27:37;;;;;;;9.40;3.55;;;23.90;68.80;;;;;;5036235;28;20123;-93
2021/08/06 10:30:23;;;;;;;8.73;4.55;;;24.00;68.60;;;;;;5041281;28;20037;-89
2021/08/06 10:33:10;;;;;;;13.50;4.28;;;24.10;68.50;;;;;;5028502;28;20049;-87
2021/08/06 10:35:45;;;;;;;8.45;3.30;;;24.10;68.10;;;;;;5046103;28;20028;-88
2021/08/06 10:38:13;;;;;;;11.27;3.70;;;24.20;68.10;;;;;;5054845;28;20033;-89
2021/08/06 10:40:39;;;;;;;10.75;3.67;;;24.30;68.20;;;;;;5068813;28;20095;-85
2021/08/06 10:43:11;;;;;;;8.15;3.00;;;24.40;68.10;;;;;;5069580;28;20029;-91
2021/08/06 10:45:47;;;;;;;8.00;3.78;;;24.50;67.50;;;;;;5053822;28;20237;-90
2021/08/06 10:48:32;;;;;;;11.18;3.28;;;24.70;67.60;;;;;;5054088;28;20045;-88
2021/08/06 10:51:20;;;;;;;12.20;3.30;;;24.80;67.30;;;;;;5035436;28;20430;-85
2021/08/06 10:54:09;;;;;;;14.95;4.32;;;25.00;67.40;;;;;;5053217;28;20626;-83
2021/08/06 10:56:40;;;;;;;10.68;4.18;;;25.10;67.00;;;;;;5062829;28;20036;-79
2021/08/06 10:59:14;;;;;;;14.13;4.07;;;25.20;66.50;;;;;;5074084;28;20036;-94
2021/08/06 11:01:45;;;;;;;11.73;4.38;;;25.30;66.10;;;;;;5063076;28;20039;-86
2021/08/06 11:04:11;;;;;;;17.60;4.70;;;25.40;65.80;;;;;;5080060;28;20047;-92
2021/08/06 11:06:47;;;;;;;13.23;4.82;;;25.30;65.70;;;;;;5042779;28;20036;-88
2021/08/06 11:09:25;;;;;;;13.82;4.70;;;25.30;65.30;;;;;;5081420;28;20558;-94
2021/08/06 11:11:53;;;;;;;10.02;4.13;;;25.40;65.20;;;;;;5040912;28;20059;-88
2021/08/06 11:14:28;;;;;;;14.85;4.80;;;25.50;65.10;;;;;;5048290;28;20035;-94
2021/08/06 11:17:18;;;;;;;17.70;5.13;;;25.50;64.60;;;;;;5062136;28;20047;-92
2021/08/06 11:19:56;;;;;;;14.32;4.85;;;25.60;64.20;;;;;;5060430;28;20028;-88
2021/08/06 11:22:30;;;;;;;15.73;4.85;;;25.70;64.40;;;;;;5054204;28;20484;-90
2021/08/06 11:25:15;;;;;;;16.27;4.32;;;25.70;64.10;;;;;;5038249;28;20114;-87
2021/08/06 11:27:44;;;;;;;11.32;4.88;;;25.70;64.00;;;;;;5061487;28;20129;-89
2021/08/06 11:30:22;;;;;;;9.30;3.65;;;25.80;63.80;;;;;;5057882;28;20028;-84
2021/08/06 11:32:52;;;;;;;16.08;4.63;;;25.80;63.30;;;;;;5043563;28;20484;-86
2021/08/06 11:35:21;;;;;;;14.98;4.22;;;25.90;63.40;;;;;;5055399;28;20500;-87
2021/08/06 11:37:51;;;;;;;14.40;4.30;;;25.90;63.20;;;;;;5054404;28;20039;-92
2021/08/06 11:40:19;;;;;;;13.55;4.05;;;25.90;62.90;;;;;;5055204;28;20028;-91
2021/08/06 11:42:49;;;;;;;11.07;3.47;;;25.90;62.50;;;;;;5046476;28;20036;-96
2021/08/06 11:45:20;;;;;;;12.00;3.42;;;25.90;62.10;;;;;;5043512;28;20021;-90
2021/08/06 11:47:58;;;;;;;13.43;4.45;;;25.90;61.90;;;;;;5070707;28;20484;-91
2021/08/06 11:50:49;;;;;;;10.73;3.53;;;26.00;61.90;;;;;;5039482;28;20132;-93
2021/08/06 11:53:25;;;;;;;11.88;4.38;;;26.00;61.80;;;;;;5058673;28;20428;-91
2021/08/06 11:55:55;;;;;;;15.15;4.20;;;26.00;61.60;;;;;;5072440;28;20463;-90
2021/08/06 11:58:35;;;;;;;11.40;4.00;;;26.00;61.60;;;;;;5074566;28;20033;-91
2021/08/06 12:01:04;;;;;;;11.20;3.47;;;26.10;61.40;;;;;;5054809;28;20115;-89
2021/08/06 12:03:30;;;;;;;14.38;3.72;;;26.10;61.30;;;;;;5069012;28;20060;-87
2021/08/06 12:06:02;;;;;;;10.25;3.80;;;26.20;61.20;;;;;;5052321;28;20059;-87
2021/08/06 12:08:33;;;;;;;11.05;3.97;;;26.20;61.10;;;;;;5050234;28;20593;-86
2021/08/06 12:11:05;;;;;;;12.10;3.97;;;26.30;60.70;;;;;;5041817;28;20480;-88
2021/08/06 12:13:34;;;;;;;12.20;3.40;;;26.30;60.40;;;;;;5068386;28;20028;-89
2021/08/06 12:16:01;;;;;;;10.52;3.65;;;26.30;60.40;;;;;;5075199;28;20032;-86
2021/08/06 12:18:27;;;;;;;10.73;3.40;;;26.40;60.20;;;;;;5072475;28;20028;-91
2021/08/06 12:20:54;;;;;;;12.75;3.80;;;26.40;60.00;;;;;;5055632;28;20039;-94
2021/08/06 12:23:21;;;;;;;11.63;3.60;;;26.40;59.90;;;;;;5068390;28;20048;-90
2021/08/06 12:26:12;;;;;;;9.32;3.40;;;26.40;59.80;;;;;;5069749;28;20123;-83
2021/08/06 12:28:44;;;;;;;12.98;3.35;;;26.50;59.10;;;;;;5040273;28;20320;-83
2021/08/06 12:31:24;;;;;;;8.50;3.35;;;26.50;59.00;;;;;;5048784;28;20144;-83
2021/08/06 12:34:12;;;;;;;12.73;3.05;;;26.50;59.00;;;;;;5067147;28;20033;-84
2021/08/06 12:36:51;;;;;;;10.55;3.15;;;26.60;59.20;;;;;;5051104;28;20051;-85
2021/08/06 12:39:17;;;;;;;10.43;3.30;;;26.60;59.20;;;;;;5050608;28;20028;-84
2021/08/06 12:41:45;;;;;;;6.82;2.65;;;26.70;59.30;;;;;;5050749;28;20232;-84
2021/08/06 12:44:27;;;;;;;9.23;3.38;;;26.70;59.20;;;;;;5062734;28;20078;-81
2021/08/06 12:47:17;;;;;;;8.20;2.90;;;26.70;59.10;;;;;;5062418;28;20097;-85
2021/08/06 12:49:58;;;;;;;6.90;2.80;;;26.80;59.20;;;;;;5066989;28;20494;-82
2021/08/06 12:52:26;;;;;;;12.00;2.85;;;26.80;59.20;;;;;;5050254;28;20040;-84
2021/08/06 12:54:55;;;;;;;8.93;2.88;;;26.90;59.20;;;;;;5044729;28;20055;-84
2021/08/06 12:57:51;;;;;;;7.53;2.13;;;27.00;59.10;;;;;;5036892;28;20035;-88
2021/08/06 13:00:30;;;;;;;6.65;2.25;;;27.00;59.00;;;;;;5036001;28;20460;-79